sensor_id;sensor_type;location;lat;lon;timestamp;pressure;altitude;pressure_sealevel;temperature;humidity
10948;BME280;5526;42.070;24.752;2024-03-07T00:00:27;98984.00;;;8.57;100.00
10948;BME280;5526;42.070;24.752;2024-03-07T00:02:54;98979.22;;;8.54;100.00
10948;BME280;5526;42.070;24.752;2024-03-07T00:05:22;98970.94;;;8.62;100.00
10948;BME280;5526;42.070;24.752;2024-03-07T00:07:50;98967.50;;;8.57;100.00
10948;BME280;5526;42.070;24.752;2024-03-07T00:10:19;98963.81;;;8.58;100.00
10948;BME280;5526;42.070;24.752;2024-03-07T00:12:48;98954.75;;;8.49;100.00
10948;BME280;5526;42.070;24.752;2024-03-07T00:15:15;98961.78;;;8.43;100.00
10948;BME280;5526;42.070;24.752;2024-03-07T00:17:43;98960.03;;;8.32;100.00
10948;BME280;5526;42.070;24.752;2024-03-07T00:20:11;98957.09;;;8.29;100.00
10948;BME280;5526;42.070;24.752;2024-03-07T00:22:41;98968.19;;;8.19;100.00
10948;BME280;5526;42.070;24.752;2024-03-07T00:25:09;98961.91;;;8.20;100.00
10948;BME280;5526;42.070;24.752;2024-03-07T00:27:38;98968.84;;;8.26;100.00
10948;BME280;5526;42.070;24.752;2024-03-07T00:30:06;98968.69;;;8.33;100.00
10948;BME280;5526;42.070;24.752;2024-03-07T00:32:34;98969.41;;;8.28;100.00
10948;BME280;5526;42.070;24.752;2024-03-07T00:35:05;98962.84;;;8.14;100.00
10948;BME280;5526;42.070;24.752;2024-03-07T00:37:34;98967.06;;;8.15;100.00
10948;BME280;5526;42.070;24.752;2024-03-07T00:40:01;98977.53;;;8.15;100.00
10948;BME280;5526;42.070;24.752;2024-03-07T00:42:28;98974.03;;;8.21;100.00
10948;BME280;5526;42.070;24.752;2024-03-07T00:44:57;98968.91;;;8.15;100.00
10948;BME280;5526;42.070;24.752;2024-03-07T00:47:24;98971.41;;;8.21;100.00
10948;BME280;5526;42.070;24.752;2024-03-07T00:49:51;98968.31;;;8.24;100.00
10948;BME280;5526;42.070;24.752;2024-03-07T00:52:19;98964.19;;;8.28;100.00
10948;BME280;5526;42.070;24.752;2024-03-07T00:54:46;98958.19;;;8.33;100.00
10948;BME280;5526;42.070;24.752;2024-03-07T00:57:13;98964.06;;;8.23;100.00
10948;BME280;5526;42.070;24.752;2024-03-07T00:59:41;98953.91;;;8.27;100.00
10948;BME280;5526;42.070;24.752;2024-03-07T01:02:09;98958.28;;;8.38;100.00
10948;BME280;5526;42.070;24.752;2024-03-07T01:04:36;98952.00;;;8.39;100.00
10948;BME280;5526;42.070;24.752;2024-03-07T01:07:03;98956.84;;;8.47;100.00
10948;BME280;5526;42.070;24.752;2024-03-07T01:09:30;98955.50;;;8.44;100.00
10948;BME280;5526;42.070;24.752;2024-03-07T01:11:56;98954.47;;;8.45;100.00
10948;BME280;5526;42.070;24.752;2024-03-07T01:14:25;98954.03;;;8.53;100.00
10948;BME280;5526;42.070;24.752;2024-03-07T01:16:52;98953.00;;;8.54;100.00
10948;BME280;5526;42.070;24.752;2024-03-07T01:19:21;98963.34;;;8.61;100.00
10948;BME280;5526;42.070;24.752;2024-03-07T01:21:48;98956.13;;;8.51;100.00
10948;BME280;5526;42.070;24.752;2024-03-07T01:24:15;98963.34;;;8.61;100.00
10948;BME280;5526;42.070;24.752;2024-03-07T01:26:43;98964.53;;;8.53;100.00
10948;BME280;5526;42.070;24.752;2024-03-07T01:29:10;98952.63;;;8.46;100.00
10948;BME280;5526;42.070;24.752;2024-03-07T01:31:37;98961.44;;;8.56;100.00
10948;BME280;5526;42.070;24.752;2024-03-07T01:34:04;98963.81;;;8.58;100.00
10948;BME280;5526;42.070;24.752;2024-03-07T01:36:33;98959.22;;;8.65;100.00
10948;BME280;5526;42.070;24.752;2024-03-07T01:38:59;98955.84;;;8.69;100.00
10948;BME280;5526;42.070;24.752;2024-03-07T01:41:27;98961.91;;;8.70;100.00
10948;BME280;5526;42.070;24.752;2024-03-07T01:43:54;98959.22;;;8.65;100.00
10948;BME280;5526;42.070;24.752;2024-03-07T01:46:22;98954.19;;;8.63;100.00
10948;BME280;5526;42.070;24.752;2024-03-07T01:48:50;98956.81;;;8.63;100.00
10948;BME280;5526;42.070;24.752;2024-03-07T01:51:17;98955.22;;;8.62;100.00
10948;BME280;5526;42.070;24.752;2024-03-07T01:53:46;98962.59;;;8.65;100.00
10948;BME280;5526;42.070;24.752;2024-03-07T01:56:16;98960.78;;;8.66;100.00
10948;BME280;5526;42.070;24.752;2024-03-07T01:58:45;98967.22;;;8.58;100.00
10948;BME280;5526;42.070;24.752;2024-03-07T02:01:13;98957.94;;;8.67;100.00
10948;BME280;5526;42.070;24.752;2024-03-07T02:03:41;98962.53;;;8.60;100.00
10948;BME280;5526;42.070;24.752;2024-03-07T02:06:08;98967.56;;;8.45;100.00
10948;BME280;5526;42.070;24.752;2024-03-07T02:08:35;98958.25;;;8.54;100.00
10948;BME280;5526;42.070;24.752;2024-03-07T02:11:04;98960.72;;;8.61;100.00
10948;BME280;5526;42.070;24.752;2024-03-07T02:13:31;98958.56;;;8.58;100.00
10948;BME280;5526;42.070;24.752;2024-03-07T02:15:58;98949.84;;;8.52;100.00
10948;BME280;5526;42.070;24.752;2024-03-07T02:18:25;98955.97;;;8.41;100.00
10948;BME280;5526;42.070;24.752;2024-03-07T02:20:54;98957.72;;;8.36;100.00
10948;BME280;5526;42.070;24.752;2024-03-07T02:23:22;98952.00;;;8.39;100.00
10948;BME280;5526;42.070;24.752;2024-03-07T02:25:49;98952.47;;;8.36;100.00
10948;BME280;5526;42.070;24.752;2024-03-07T02:28:16;98946.69;;;8.34;100.00
10948;BME280;5526;42.070;24.752;2024-03-07T02:30:43;98945.50;;;8.25;100.00
10948;BME280;5526;42.070;24.752;2024-03-07T02:33:11;98944.59;;;8.19;100.00
10948;BME280;5526;42.070;24.752;2024-03-07T02:35:38;98948.34;;;8.07;100.00
10948;BME280;5526;42.070;24.752;2024-03-07T02:38:06;98947.47;;;8.01;100.00
10948;BME280;5526;42.070;24.752;2024-03-07T02:40:34;98947.63;;;7.95;100.00
10948;BME280;5526;42.070;24.752;2024-03-07T02:43:01;98952.84;;;7.95;100.00
10948;BME280;5526;42.070;24.752;2024-03-07T02:45:30;98950.28;;;7.83;100.00
10948;BME280;5526;42.070;24.752;2024-03-07T02:47:57;98954.03;;;7.87;100.00
10948;BME280;5526;42.070;24.752;2024-03-07T02:50:24;98954.22;;;7.97;100.00
10948;BME280;5526;42.070;24.752;2024-03-07T02:52:51;98954.84;;;8.04;100.00
10948;BME280;5526;42.070;24.752;2024-03-07T02:55:20;98948.09;;;8.08;100.00
10948;BME280;5526;42.070;24.752;2024-03-07T02:57:47;98949.44;;;7.94;100.00
10948;BME280;5526;42.070;24.752;2024-03-07T03:00:16;98944.44;;;7.93;100.00
10948;BME280;5526;42.070;24.752;2024-03-07T03:02:52;98945.22;;;7.93;100.00
10948;BME280;5526;42.070;24.752;2024-03-07T03:05:19;98948.41;;;7.95;100.00
10948;BME280;5526;42.070;24.752;2024-03-07T03:07:46;98945.22;;;7.93;100.00
10948;BME280;5526;42.070;24.752;2024-03-07T03:10:21;98943.00;;;7.85;100.00
10948;BME280;5526;42.070;24.752;2024-03-07T03:12:52;98949.03;;;7.86;100.00
10948;BME280;5526;42.070;24.752;2024-03-07T03:15:20;98944.13;;;7.89;100.00
10948;BME280;5526;42.070;24.752;2024-03-07T03:17:47;98951.59;;;7.97;100.00
10948;BME280;5526;42.070;24.752;2024-03-07T03:20:15;98955.72;;;7.93;100.00
10948;BME280;5526;42.070;24.752;2024-03-07T03:22:53;98956.19;;;7.90;100.00
10948;BME280;5526;42.070;24.752;2024-03-07T03:25:22;98950.47;;;7.93;100.00
10948;BME280;5526;42.070;24.752;2024-03-07T03:27:50;98940.38;;;7.85;100.00
10948;BME280;5526;42.070;24.752;2024-03-07T03:30:17;98952.28;;;7.93;100.00
10948;BME280;5526;42.070;24.752;2024-03-07T03:32:45;98944.91;;;8.06;100.00
10948;BME280;5526;42.070;24.752;2024-03-07T03:35:14;98950.22;;;8.11;100.00
10948;BME280;5526;42.070;24.752;2024-03-07T03:37:41;98952.38;;;8.14;100.00
10948;BME280;5526;42.070;24.752;2024-03-07T03:40:09;98958.19;;;8.16;100.00
10948;BME280;5526;42.070;24.752;2024-03-07T03:42:39;98947.16;;;8.31;100.00
10948;BME280;5526;42.070;24.752;2024-03-07T03:45:07;98945.50;;;8.25;100.00
10948;BME280;5526;42.070;24.752;2024-03-07T03:47:36;98948.50;;;8.33;100.00
10948;BME280;5526;42.070;24.752;2024-03-07T03:50:04;98954.88;;;8.37;100.00
10948;BME280;5526;42.070;24.752;2024-03-07T03:52:31;98954.31;;;8.35;100.00
10948;BME280;5526;42.070;24.752;2024-03-07T03:54:59;98949.38;;;8.39;100.00
10948;BME280;5526;42.070;24.752;2024-03-07T03:57:26;98955.44;;;8.39;100.00
10948;BME280;5526;42.070;24.752;2024-03-07T03:59:54;98957.41;;;8.32;100.00
10948;BME280;5526;42.070;24.752;2024-03-07T04:02:22;98953.75;;;8.33;100.00
10948;BME280;5526;42.070;24.752;2024-03-07T04:04:49;98959.31;;;8.20;100.00
10948;BME280;5526;42.070;24.752;2024-03-07T04:07:17;98960.47;;;8.13;100.00
10948;BME280;5526;42.070;24.752;2024-03-07T04:09:45;98947.47;;;8.01;100.00
10948;BME280;5526;42.070;24.752;2024-03-07T04:12:12;98953.47;;;7.85;100.00
10948;BME280;5526;42.070;24.752;2024-03-07T04:14:41;98943.63;;;7.76;100.00
10948;BME280;5526;42.070;24.752;2024-03-07T04:17:10;98958.50;;;7.87;100.00
10948;BME280;5526;42.070;24.752;2024-03-07T04:19:39;98958.16;;;7.83;100.00
10948;BME280;5526;42.070;24.752;2024-03-07T04:22:07;98949.50;;;7.99;100.00
10948;BME280;5526;42.070;24.752;2024-03-07T04:24:35;98959.59;;;8.07;100.00
10948;BME280;5526;42.070;24.752;2024-03-07T04:27:03;98959.75;;;8.01;100.00
10948;BME280;5526;42.070;24.752;2024-03-07T04:29:30;98960.25;;;8.14;100.00
10948;BME280;5526;42.070;24.752;2024-03-07T04:31:58;98959.53;;;8.19;100.00
10948;BME280;5526;42.070;24.752;2024-03-07T04:34:26;98955.50;;;8.28;100.00
10948;BME280;5526;42.070;24.752;2024-03-07T04:36:56;98957.69;;;8.19;100.00
10948;BME280;5526;42.070;24.752;2024-03-07T04:39:24;98962.16;;;8.19;100.00
10948;BME280;5526;42.070;24.752;2024-03-07T04:41:56;98956.53;;;8.27;100.00
10948;BME280;5526;42.070;24.752;2024-03-07T04:44:23;98950.97;;;8.23;100.00
10948;BME280;5526;42.070;24.752;2024-03-07T04:46:50;98946.84;;;8.27;100.00
10948;BME280;5526;42.070;24.752;2024-03-07T04:49:21;98954.47;;;8.29;100.00
10948;BME280;5526;42.070;24.752;2024-03-07T04:51:51;98953.97;;;8.15;100.00
10948;BME280;5526;42.070;24.752;2024-03-07T04:54:18;98960.72;;;8.11;100.00
10948;BME280;5526;42.070;24.752;2024-03-07T04:56:45;98957.13;;;8.01;100.00
10948;BME280;5526;42.070;24.752;2024-03-07T04:59:13;98962.06;;;7.97;100.00
10948;BME280;5526;42.070;24.752;2024-03-07T05:01:40;98968.72;;;8.05;100.00
10948;BME280;5526;42.070;24.752;2024-03-07T05:04:07;98970.59;;;8.21;100.00
10948;BME280;5526;42.070;24.752;2024-03-07T05:06:35;98969.97;;;8.30;100.00
10948;BME280;5526;42.070;24.752;2024-03-07T05:09:04;98970.94;;;8.24;100.00
10948;BME280;5526;42.070;24.752;2024-03-07T05:11:32;98972.88;;;8.17;100.00
10948;BME280;5526;42.070;24.752;2024-03-07T05:14:00;98974.09;;;8.26;100.00
10948;BME280;5526;42.070;24.752;2024-03-07T05:16:28;98978.56;;;8.26;100.00
10948;BME280;5526;42.070;24.752;2024-03-07T05:18:55;98973.97;;;8.05;100.00
10948;BME280;5526;42.070;24.752;2024-03-07T05:21:25;98980.06;;;7.94;100.00
10948;BME280;5526;42.070;24.752;2024-03-07T05:24:05;98989.03;;;7.98;100.00
10948;BME280;5526;42.070;24.752;2024-03-07T05:26:33;98992.88;;;8.07;100.00
10948;BME280;5526;42.070;24.752;2024-03-07T05:29:03;98978.66;;;8.19;100.00
10948;BME280;5526;42.070;24.752;2024-03-07T05:31:33;98976.03;;;8.19;100.00
10948;BME280;5526;42.070;24.752;2024-03-07T05:34:01;98985.03;;;8.23;100.00
10948;BME280;5526;42.070;24.752;2024-03-07T05:36:30;98992.16;;;8.11;100.00
10948;BME280;5526;42.070;24.752;2024-03-07T05:38:58;98984.78;;;7.92;100.00
10948;BME280;5526;42.070;24.752;2024-03-07T05:41:28;98976.53;;;8.00;100.00
10948;BME280;5526;42.070;24.752;2024-03-07T05:43:55;98979.28;;;7.93;100.00
10948;BME280;5526;42.070;24.752;2024-03-07T05:46:23;98995.66;;;7.72;100.00
10948;BME280;5526;42.070;24.752;2024-03-07T05:48:50;99004.75;;;7.81;100.00
10948;BME280;5526;42.070;24.752;2024-03-07T05:51:21;99002.22;;;7.86;100.00
10948;BME280;5526;42.070;24.752;2024-03-07T05:53:48;98981.06;;;7.60;100.00
10948;BME280;5526;42.070;24.752;2024-03-07T05:56:19;99013.75;;;7.57;100.00
10948;BME280;5526;42.070;24.752;2024-03-07T05:58:47;99014.88;;;7.61;100.00
10948;BME280;5526;42.070;24.752;2024-03-07T06:01:16;99017.13;;;7.69;100.00
10948;BME280;5526;42.070;24.752;2024-03-07T06:03:44;99005.47;;;7.49;100.00
10948;BME280;5526;42.070;24.752;2024-03-07T06:06:11;99030.28;;;7.74;100.00
10948;BME280;5526;42.070;24.752;2024-03-07T06:08:38;99032.47;;;7.94;100.00
10948;BME280;5526;42.070;24.752;2024-03-07T06:11:08;99032.91;;;8.02;100.00
10948;BME280;5526;42.070;24.752;2024-03-07T06:13:35;99036.19;;;7.81;100.00
10948;BME280;5526;42.070;24.752;2024-03-07T06:16:04;99033.47;;;7.76;100.00
10948;BME280;5526;42.070;24.752;2024-03-07T06:18:34;99026.66;;;7.75;100.00
10948;BME280;5526;42.070;24.752;2024-03-07T06:21:01;99030.72;;;7.83;100.00
10948;BME280;5526;42.070;24.752;2024-03-07T06:23:30;99028.38;;;7.70;100.00
10948;BME280;5526;42.070;24.752;2024-03-07T06:25:58;99023.72;;;7.60;100.00
10948;BME280;5526;42.070;24.752;2024-03-07T06:28:26;99023.66;;;7.55;100.00
10948;BME280;5526;42.070;24.752;2024-03-07T06:30:55;99031.97;;;7.52;100.00
10948;BME280;5526;42.070;24.752;2024-03-07T06:33:24;99041.88;;;7.50;100.00
10948;BME280;5526;42.070;24.752;2024-03-07T06:35:51;99032.59;;;7.31;100.00
10948;BME280;5526;42.070;24.752;2024-03-07T06:38:19;99022.53;;;7.51;100.00
10948;BME280;5526;42.070;24.752;2024-03-07T06:40:46;99026.72;;;7.52;100.00
10948;BME280;5526;42.070;24.752;2024-03-07T06:43:14;99027.91;;;7.45;100.00
10948;BME280;5526;42.070;24.752;2024-03-07T06:45:41;99021.84;;;7.56;100.00
10948;BME280;5526;42.070;24.752;2024-03-07T06:48:08;99022.97;;;7.48;100.00
10948;BME280;5526;42.070;24.752;2024-03-07T06:50:37;99024.69;;;7.54;100.00
10948;BME280;5526;42.070;24.752;2024-03-07T06:53:06;99024.09;;;7.52;100.00
10948;BME280;5526;42.070;24.752;2024-03-07T06:55:33;99029.09;;;7.54;100.00
10948;BME280;5526;42.070;24.752;2024-03-07T06:58:01;99027.00;;;7.67;100.00
10948;BME280;5526;42.070;24.752;2024-03-07T07:00:30;99029.31;;;7.64;100.00
10948;BME280;5526;42.070;24.752;2024-03-07T07:03:01;99039.25;;;7.50;100.00
10948;BME280;5526;42.070;24.752;2024-03-07T07:05:30;99043.50;;;7.40;100.00
10948;BME280;5526;42.070;24.752;2024-03-07T07:08:00;99039.16;;;7.45;100.00
10948;BME280;5526;42.070;24.752;2024-03-07T07:10:28;99041.91;;;7.39;100.00
10948;BME280;5526;42.070;24.752;2024-03-07T07:12:55;99027.75;;;7.51;100.00
10948;BME280;5526;42.070;24.752;2024-03-07T07:15:22;99034.81;;;7.51;100.00
10948;BME280;5526;42.070;24.752;2024-03-07T07:17:49;99033.81;;;7.52;100.00
10948;BME280;5526;42.070;24.752;2024-03-07T07:20:17;99041.84;;;7.62;100.00
10948;BME280;5526;42.070;24.752;2024-03-07T07:22:45;99039.19;;;7.73;100.00
10948;BME280;5526;42.070;24.752;2024-03-07T07:25:14;99045.94;;;7.69;100.00
10948;BME280;5526;42.070;24.752;2024-03-07T07:27:43;99046.00;;;7.74;100.00
10948;BME280;5526;42.070;24.752;2024-03-07T07:30:11;99044.00;;;7.65;100.00
10948;BME280;5526;42.070;24.752;2024-03-07T07:32:39;99051.63;;;7.66;100.00
10948;BME280;5526;42.070;24.752;2024-03-07T07:35:07;99049.22;;;7.65;100.00
10948;BME280;5526;42.070;24.752;2024-03-07T07:37:37;99049.03;;;7.55;100.00
10948;BME280;5526;42.070;24.752;2024-03-07T07:40:05;99061.22;;;7.61;100.00
10948;BME280;5526;42.070;24.752;2024-03-07T07:42:36;99054.91;;;7.73;100.00
10948;BME280;5526;42.070;24.752;2024-03-07T07:45:06;99053.19;;;7.79;100.00
10948;BME280;5526;42.070;24.752;2024-03-07T07:47:38;99060.22;;;7.78;100.00
10948;BME280;5526;42.070;24.752;2024-03-07T07:50:07;99063.31;;;7.75;100.00
10948;BME280;5526;42.070;24.752;2024-03-07T07:52:41;99056.66;;;7.84;100.00
10948;BME280;5526;42.070;24.752;2024-03-07T07:55:09;99067.56;;;7.93;100.00
10948;BME280;5526;42.070;24.752;2024-03-07T07:57:42;99069.13;;;7.77;100.00
10948;BME280;5526;42.070;24.752;2024-03-07T08:00:12;99071.16;;;7.75;100.00
10948;BME280;5526;42.070;24.752;2024-03-07T08:02:48;99074.38;;;7.77;100.00
10948;BME280;5526;42.070;24.752;2024-03-07T08:05:16;99078.50;;;8.01;100.00
10948;BME280;5526;42.070;24.752;2024-03-07T08:07:44;99075.06;;;8.01;100.00
10948;BME280;5526;42.070;24.752;2024-03-07T08:10:11;99081.63;;;8.15;100.00
10948;BME280;5526;42.070;24.752;2024-03-07T08:12:38;99086.34;;;8.29;100.00
10948;BME280;5526;42.070;24.752;2024-03-07T08:15:11;99067.31;;;8.34;100.00
10948;BME280;5526;42.070;24.752;2024-03-07T08:17:40;99080.19;;;8.35;100.00
10948;BME280;5526;42.070;24.752;2024-03-07T08:20:11;99082.31;;;8.10;100.00
10948;BME280;5526;42.070;24.752;2024-03-07T08:22:38;99080.69;;;8.21;100.00
10948;BME280;5526;42.070;24.752;2024-03-07T08:25:07;99079.69;;;8.38;100.00
10948;BME280;5526;42.070;24.752;2024-03-07T08:27:35;99084.16;;;8.38;100.00
10948;BME280;5526;42.070;24.752;2024-03-07T08:30:03;99077.16;;;8.43;100.00
10948;BME280;5526;42.070;24.752;2024-03-07T08:32:33;99089.63;;;8.53;100.00
10948;BME280;5526;42.070;24.752;2024-03-07T08:35:03;99093.22;;;8.63;100.00
10948;BME280;5526;42.070;24.752;2024-03-07T08:37:34;99093.84;;;8.54;100.00
10948;BME280;5526;42.070;24.752;2024-03-07T08:40:02;99094.03;;;8.47;100.00
10948;BME280;5526;42.070;24.752;2024-03-07T08:42:32;99093.38;;;8.40;100.00
10948;BME280;5526;42.070;24.752;2024-03-07T08:45:00;99096.06;;;8.45;100.00
10948;BME280;5526;42.070;24.752;2024-03-07T08:47:27;99104.25;;;8.32;100.00
10948;BME280;5526;42.070;24.752;2024-03-07T08:49:58;99099.97;;;8.43;100.00
10948;BME280;5526;42.070;24.752;2024-03-07T08:52:25;99107.75;;;8.54;100.00
10948;BME280;5526;42.070;24.752;2024-03-07T08:54:53;99105.66;;;8.40;100.00
10948;BME280;5526;42.070;24.752;2024-03-07T08:57:21;99112.16;;;8.21;100.00
10948;BME280;5526;42.070;24.752;2024-03-07T08:59:48;99110.03;;;8.34;100.00
10948;BME280;5526;42.070;24.752;2024-03-07T09:02:15;99108.75;;;8.37;100.00
10948;BME280;5526;42.070;24.752;2024-03-07T09:04:43;99112.00;;;8.27;100.00
10948;BME280;5526;42.070;24.752;2024-03-07T09:07:11;99115.66;;;8.26;100.00
10948;BME280;5526;42.070;24.752;2024-03-07T09:09:40;99090.41;;;8.09;100.00
10948;BME280;5526;42.070;24.752;2024-03-07T09:12:09;99124.69;;;8.47;100.00
10948;BME280;5526;42.070;24.752;2024-03-07T09:14:36;99127.31;;;8.47;100.00
10948;BME280;5526;42.070;24.752;2024-03-07T09:17:03;99120.25;;;8.47;100.00
10948;BME280;5526;42.070;24.752;2024-03-07T09:19:31;99119.34;;;8.42;100.00
10948;BME280;5526;42.070;24.752;2024-03-07T09:21:58;99122.94;;;8.52;100.00
10948;BME280;5526;42.070;24.752;2024-03-07T09:24:27;99123.03;;;8.57;100.00
10948;BME280;5526;42.070;24.752;2024-03-07T09:26:54;99130.47;;;8.49;100.00
10948;BME280;5526;42.070;24.752;2024-03-07T09:29:22;99115.97;;;8.58;100.00
10948;BME280;5526;42.070;24.752;2024-03-07T09:31:50;99123.09;;;8.62;100.00
10948;BME280;5526;42.070;24.752;2024-03-07T09:34:19;99129.47;;;8.50;100.00
10948;BME280;5526;42.070;24.752;2024-03-07T09:36:46;99131.94;;;8.56;100.00
10948;BME280;5526;42.070;24.752;2024-03-07T09:39:14;99140.69;;;8.62;100.00
10948;BME280;5526;42.070;24.752;2024-03-07T09:41:43;99135.78;;;8.37;100.00
10948;BME280;5526;42.070;24.752;2024-03-07T09:44:14;99136.59;;;8.38;100.00
10948;BME280;5526;42.070;24.752;2024-03-07T09:46:44;99147.09;;;8.38;100.00
10948;BME280;5526;42.070;24.752;2024-03-07T09:49:13;99149.38;;;8.34;100.00
10948;BME280;5526;42.070;24.752;2024-03-07T09:51:40;99150.31;;;8.28;100.00
10948;BME280;5526;42.070;24.752;2024-03-07T09:54:08;99155.91;;;8.20;100.00
10948;BME280;5526;42.070;24.752;2024-03-07T09:56:36;99154.53;;;8.29;100.00
10948;BME280;5526;42.070;24.752;2024-03-07T09:59:05;99157.28;;;8.23;100.00
10948;BME280;5526;42.070;24.752;2024-03-07T10:01:39;99155.91;;;8.20;100.00
10948;BME280;5526;42.070;24.752;2024-03-07T10:04:13;99159.13;;;8.11;100.00
10948;BME280;5526;42.070;24.752;2024-03-07T10:06:40;99163.56;;;8.22;100.00
10948;BME280;5526;42.070;24.752;2024-03-07T10:09:08;99161.59;;;8.17;100.00
10948;BME280;5526;42.070;24.752;2024-03-07T10:11:35;99165.28;;;8.05;100.00
10948;BME280;5526;42.070;24.752;2024-03-07T10:14:02;99159.59;;;8.08;100.00
10948;BME280;5526;42.070;24.752;2024-03-07T10:16:31;99161.97;;;8.09;100.00
10948;BME280;5526;42.070;24.752;2024-03-07T10:18:59;99166.31;;;8.04;100.00
10948;BME280;5526;42.070;24.752;2024-03-07T10:21:26;99155.31;;;7.90;100.00
10948;BME280;5526;42.070;24.752;2024-03-07T10:24:04;99162.94;;;7.92;100.00
10948;BME280;5526;42.070;24.752;2024-03-07T10:26:34;99160.56;;;7.90;100.00
10948;BME280;5526;42.070;24.752;2024-03-07T10:29:01;99156.84;;;7.75;100.00
10948;BME280;5526;42.070;24.752;2024-03-07T10:31:29;99157.72;;;7.80;100.00
10948;BME280;5526;42.070;24.752;2024-03-07T10:34:00;99161.81;;;7.88;100.00
10948;BME280;5526;42.070;24.752;2024-03-07T10:36:28;99160.09;;;7.82;100.00
10948;BME280;5526;42.070;24.752;2024-03-07T10:38:57;99155.44;;;7.72;100.00
10948;BME280;5526;42.070;24.752;2024-03-07T10:41:44;99150.06;;;7.90;100.00
10948;BME280;5526;42.070;24.752;2024-03-07T10:44:18;99155.66;;;7.82;100.00
10948;BME280;5526;42.070;24.752;2024-03-07T10:46:51;99161.22;;;7.86;100.00
10948;BME280;5526;42.070;24.752;2024-03-07T10:49:21;99157.16;;;7.78;100.00
10948;BME280;5526;42.070;24.752;2024-03-07T10:51:59;99161.03;;;7.64;100.00
10948;BME280;5526;42.070;24.752;2024-03-07T10:54:36;99161.75;;;7.60;100.00
10948;BME280;5526;42.070;24.752;2024-03-07T10:57:20;99162.31;;;7.62;100.00
10948;BME280;5526;42.070;24.752;2024-03-07T10:59:55;99160.38;;;7.69;100.00
10948;BME280;5526;42.070;24.752;2024-03-07T11:02:33;99163.06;;;7.85;100.00
10948;BME280;5526;42.070;24.752;2024-03-07T11:05:04;99153.38;;;7.86;100.00
10948;BME280;5526;42.070;24.752;2024-03-07T11:07:37;99149.41;;;7.83;100.00
10948;BME280;5526;42.070;24.752;2024-03-07T11:10:05;99151.41;;;7.93;100.00
10948;BME280;5526;42.070;24.752;2024-03-07T11:12:38;99147.69;;;7.89;100.00
10948;BME280;5526;42.070;24.752;2024-03-07T11:15:07;99154.84;;;7.93;100.00
10948;BME280;5526;42.070;24.752;2024-03-07T11:17:41;99150.00;;;8.13;100.00
10948;BME280;5526;42.070;24.752;2024-03-07T11:20:23;99153.69;;;8.01;100.00
10948;BME280;5526;42.070;24.752;2024-03-07T11:22:50;99149.03;;;7.91;100.00
10948;BME280;5526;42.070;24.752;2024-03-07T11:25:19;99143.53;;;8.04;100.00
10948;BME280;5526;42.070;24.752;2024-03-07T11:27:55;99147.41;;;8.02;100.00
10948;BME280;5526;42.070;24.752;2024-03-07T11:30:23;99145.66;;;8.07;100.00
10948;BME280;5526;42.070;24.752;2024-03-07T11:32:50;99132.44;;;8.25;100.00
10948;BME280;5526;42.070;24.752;2024-03-07T11:35:22;99136.72;;;8.31;100.00
10948;BME280;5526;42.070;24.752;2024-03-07T11:37:59;99133.00;;;8.44;100.00
10948;BME280;5526;42.070;24.752;2024-03-07T11:40:44;99114.84;;;8.54;100.00
10948;BME280;5526;42.070;24.752;2024-03-07T11:43:12;99116.22;;;8.73;100.00
10948;BME280;5526;42.070;24.752;2024-03-07T11:45:40;99101.81;;;8.75;100.00
10948;BME280;5526;42.070;24.752;2024-03-07T11:48:10;99089.66;;;8.86;100.00
10948;BME280;5526;42.070;24.752;2024-03-07T11:50:40;99086.38;;;8.96;100.00
10948;BME280;5526;42.070;24.752;2024-03-07T11:53:09;99079.03;;;8.98;100.00
10948;BME280;5526;42.070;24.752;2024-03-07T11:55:37;99089.88;;;8.84;100.00
10948;BME280;5526;42.070;24.752;2024-03-07T11:58:10;99103.72;;;8.97;100.00
10948;BME280;5526;42.070;24.752;2024-03-07T12:00:40;99115.38;;;9.22;100.00
10948;BME280;5526;42.070;24.752;2024-03-07T12:03:11;99116.72;;;9.25;100.00
10948;BME280;5526;42.070;24.752;2024-03-07T12:05:41;99105.97;;;9.26;100.00
10948;BME280;5526;42.070;24.752;2024-03-07T12:08:10;99109.53;;;9.37;100.00
10948;BME280;5526;42.070;24.752;2024-03-07T12:10:37;99096.34;;;9.32;100.00
10948;BME280;5526;42.070;24.752;2024-03-07T12:13:06;99085.66;;;9.38;100.00
10948;BME280;5526;42.070;24.752;2024-03-07T12:15:35;99080.97;;;9.40;100.00
10948;BME280;5526;42.070;24.752;2024-03-07T12:18:04;99086.94;;;9.36;100.00
10948;BME280;5526;42.070;24.752;2024-03-07T12:20:36;99079.00;;;9.31;100.00
10948;BME280;5526;42.070;24.752;2024-03-07T12:23:05;99088.66;;;9.47;100.00
10948;BME280;5526;42.070;24.752;2024-03-07T12:25:34;99090.63;;;9.56;100.00
10948;BME280;5526;42.070;24.752;2024-03-07T12:28:05;99090.66;;;9.61;100.00
10948;BME280;5526;42.070;24.752;2024-03-07T12:30:47;99083.59;;;9.62;100.00
10948;BME280;5526;42.070;24.752;2024-03-07T12:33:16;99077.84;;;9.65;100.00
10948;BME280;5526;42.070;24.752;2024-03-07T12:35:44;99076.91;;;9.76;100.00
10948;BME280;5526;42.070;24.752;2024-03-07T12:38:13;99082.28;;;9.86;100.00
10948;BME280;5526;42.070;24.752;2024-03-07T12:40:42;99070.78;;;9.92;100.00
10948;BME280;5526;42.070;24.752;2024-03-07T12:43:18;99074.84;;;10.04;100.00
10948;BME280;5526;42.070;24.752;2024-03-07T12:45:48;99075.22;;;10.08;100.00
10948;BME280;5526;42.070;24.752;2024-03-07T12:48:16;99076.97;;;10.02;100.00
10948;BME280;5526;42.070;24.752;2024-03-07T12:50:45;99082.72;;;9.99;100.00
10948;BME280;5526;42.070;24.752;2024-03-07T12:53:17;99083.75;;;9.98;100.00
10948;BME280;5526;42.070;24.752;2024-03-07T12:55:44;99081.28;;;9.92;100.00
10948;BME280;5526;42.070;24.752;2024-03-07T12:58:12;99081.50;;;10.07;100.00
10948;BME280;5526;42.070;24.752;2024-03-07T13:00:39;99079.31;;;10.04;100.00
10948;BME280;5526;42.070;24.752;2024-03-07T13:03:08;99078.94;;;10.12;100.00
10948;BME280;5526;42.070;24.752;2024-03-07T13:05:35;99074.19;;;10.14;100.00
10948;BME280;5526;42.070;24.752;2024-03-07T13:08:06;99066.97;;;10.04;100.00